sensor_id;sensor_type;location;lat;lon;timestamp;P1;durP1;ratioP1;P2;durP2;ratioP2
43646;SDS011;56152;49.996;18.980;2022-09-20T00:00:13;18.77;;;15.10;;
43646;SDS011;56152;49.996;18.980;2022-09-20T00:05:15;22.25;;;17.58;;
43646;SDS011;56152;49.996;18.980;2022-09-20T00:10:30;25.75;;;17.17;;
43646;SDS011;56152;49.996;18.980;2022-09-20T00:15:38;19.33;;;14.77;;
43646;SDS011;56152;49.996;18.980;2022-09-20T00:26:20;16.63;;;12.45;;
43646;SDS011;56152;49.996;18.980;2022-09-20T00:31:27;22.88;;;16.13;;
43646;SDS011;56152;49.996;18.980;2022-09-20T00:36:30;15.30;;;12.10;;
43646;SDS011;56152;49.996;18.980;2022-09-20T00:41:35;32.10;;;20.98;;
43646;SDS011;56152;49.996;18.980;2022-09-20T00:46:39;17.25;;;12.93;;
43646;SDS011;56152;49.996;18.980;2022-09-20T00:51:53;20.35;;;13.13;;
43646;SDS011;56152;49.996;18.980;2022-09-20T00:57:10;14.70;;;12.10;;
43646;SDS011;56152;49.996;18.980;2022-09-20T01:02:13;16.65;;;10.93;;
43646;SDS011;56152;49.996;18.980;2022-09-20T01:07:20;17.02;;;10.13;;
43646;SDS011;56152;49.996;18.980;2022-09-20T01:12:28;15.20;;;8.02;;
43646;SDS011;56152;49.996;18.980;2022-09-20T01:17:34;13.32;;;7.38;;
43646;SDS011;56152;49.996;18.980;2022-09-20T01:22:55;10.15;;;6.15;;
43646;SDS011;56152;49.996;18.980;2022-09-20T01:28:22;9.52;;;5.85;;
43646;SDS011;56152;49.996;18.980;2022-09-20T01:33:27;9.10;;;4.90;;
43646;SDS011;56152;49.996;18.980;2022-09-20T01:44:03;6.85;;;5.25;;
43646;SDS011;56152;49.996;18.980;2022-09-20T01:49:16;6.07;;;4.75;;
43646;SDS011;56152;49.996;18.980;2022-09-20T01:54:36;6.30;;;4.90;;
43646;SDS011;56152;49.996;18.980;2022-09-20T02:05:16;9.00;;;6.35;;
43646;SDS011;56152;49.996;18.980;2022-09-20T02:16:14;7.38;;;4.88;;
43646;SDS011;56152;49.996;18.980;2022-09-20T02:21:33;6.88;;;5.00;;
43646;SDS011;56152;49.996;18.980;2022-09-20T02:26:40;10.25;;;5.70;;
43646;SDS011;56152;49.996;18.980;2022-09-20T02:32:04;7.80;;;5.07;;
43646;SDS011;56152;49.996;18.980;2022-09-20T02:37:21;6.95;;;4.75;;
43646;SDS011;56152;49.996;18.980;2022-09-20T02:42:50;6.80;;;5.78;;
43646;SDS011;56152;49.996;18.980;2022-09-20T02:53:10;7.22;;;5.32;;
43646;SDS011;56152;49.996;18.980;2022-09-20T02:58:35;7.45;;;5.47;;
43646;SDS011;56152;49.996;18.980;2022-09-20T03:03:58;5.55;;;3.72;;
43646;SDS011;56152;49.996;18.980;2022-09-20T03:09:12;5.32;;;3.92;;
43646;SDS011;56152;49.996;18.980;2022-09-20T03:14:25;8.23;;;4.05;;
43646;SDS011;56152;49.996;18.980;2022-09-20T03:19:49;4.82;;;3.92;;
43646;SDS011;56152;49.996;18.980;2022-09-20T03:25:11;4.47;;;3.78;;
43646;SDS011;56152;49.996;18.980;2022-09-20T03:30:39;6.28;;;4.00;;
43646;SDS011;56152;49.996;18.980;2022-09-20T03:35:59;6.70;;;3.65;;
43646;SDS011;56152;49.996;18.980;2022-09-20T03:41:27;5.47;;;4.45;;
43646;SDS011;56152;49.996;18.980;2022-09-20T03:46:40;5.93;;;3.97;;
43646;SDS011;56152;49.996;18.980;2022-09-20T03:51:55;5.55;;;4.40;;
43646;SDS011;56152;49.996;18.980;2022-09-20T03:57:06;10.98;;;6.03;;
43646;SDS011;56152;49.996;18.980;2022-09-20T04:14:03;9.57;;;5.82;;
43646;SDS011;56152;49.996;18.980;2022-09-20T04:19:20;9.90;;;7.57;;
43646;SDS011;56152;49.996;18.980;2022-09-20T04:24:39;8.20;;;6.47;;
43646;SDS011;56152;49.996;18.980;2022-09-20T04:29:46;7.40;;;6.43;;
43646;SDS011;56152;49.996;18.980;2022-09-20T04:35:02;12.23;;;8.82;;
43646;SDS011;56152;49.996;18.980;2022-09-20T04:40:35;10.18;;;9.18;;
43646;SDS011;56152;49.996;18.980;2022-09-20T04:57:05;10.75;;;9.57;;
43646;SDS011;56152;49.996;18.980;2022-09-20T05:02:36;16.50;;;12.13;;
43646;SDS011;56152;49.996;18.980;2022-09-20T05:19:28;15.77;;;12.13;;
43646;SDS011;56152;49.996;18.980;2022-09-20T05:24:42;17.25;;;13.23;;
43646;SDS011;56152;49.996;18.980;2022-09-20T05:30:24;14.25;;;9.27;;
43646;SDS011;56152;49.996;18.980;2022-09-20T05:35:35;12.80;;;9.02;;
43646;SDS011;56152;49.996;18.980;2022-09-20T05:40:52;11.85;;;9.30;;
43646;SDS011;56152;49.996;18.980;2022-09-20T05:46:13;11.85;;;8.85;;
43646;SDS011;56152;49.996;18.980;2022-09-20T05:51:29;13.05;;;10.52;;
43646;SDS011;56152;49.996;18.980;2022-09-20T05:56:42;12.95;;;11.02;;
43646;SDS011;56152;49.996;18.980;2022-09-20T06:01:57;17.52;;;14.15;;
43646;SDS011;56152;49.996;18.980;2022-09-20T06:07:16;13.27;;;9.05;;
43646;SDS011;56152;49.996;18.980;2022-09-20T06:12:35;13.88;;;10.65;;
43646;SDS011;56152;49.996;18.980;2022-09-20T06:17:47;14.90;;;9.98;;
43646;SDS011;56152;49.996;18.980;2022-09-20T06:22:56;12.25;;;9.15;;
43646;SDS011;56152;49.996;18.980;2022-09-20T06:28:05;11.43;;;8.57;;
43646;SDS011;56152;49.996;18.980;2022-09-20T06:33:16;13.45;;;8.02;;
43646;SDS011;56152;49.996;18.980;2022-09-20T06:38:23;10.35;;;7.47;;
43646;SDS011;56152;49.996;18.980;2022-09-20T06:43:56;10.50;;;7.90;;
43646;SDS011;56152;49.996;18.980;2022-09-20T06:49:01;12.48;;;8.15;;
43646;SDS011;56152;49.996;18.980;2022-09-20T06:54:04;10.80;;;7.70;;
43646;SDS011;56152;49.996;18.980;2022-09-20T06:59:07;8.80;;;6.35;;
43646;SDS011;56152;49.996;18.980;2022-09-20T07:04:14;9.80;;;7.50;;
43646;SDS011;56152;49.996;18.980;2022-09-20T07:09:18;18.05;;;11.63;;
43646;SDS011;56152;49.996;18.980;2022-09-20T07:14:20;8.85;;;7.45;;
43646;SDS011;56152;49.996;18.980;2022-09-20T07:19:25;12.27;;;9.05;;
43646;SDS011;56152;49.996;18.980;2022-09-20T07:24:30;11.73;;;9.45;;
43646;SDS011;56152;49.996;18.980;2022-09-20T07:29:33;13.25;;;9.25;;
43646;SDS011;56152;49.996;18.980;2022-09-20T07:34:41;18.05;;;13.18;;
43646;SDS011;56152;49.996;18.980;2022-09-20T07:39:43;16.17;;;13.27;;
43646;SDS011;56152;49.996;18.980;2022-09-20T07:44:45;15.13;;;12.13;;
43646;SDS011;56152;49.996;18.980;2022-09-20T07:49:53;14.25;;;11.43;;
43646;SDS011;56152;49.996;18.980;2022-09-20T07:54:55;13.82;;;10.57;;
43646;SDS011;56152;49.996;18.980;2022-09-20T07:59:56;12.65;;;9.00;;
43646;SDS011;56152;49.996;18.980;2022-09-20T08:05:01;12.82;;;8.07;;
43646;SDS011;56152;49.996;18.980;2022-09-20T08:10:04;9.00;;;6.55;;
43646;SDS011;56152;49.996;18.980;2022-09-20T08:15:16;10.48;;;6.32;;
43646;SDS011;56152;49.996;18.980;2022-09-20T08:20:21;10.73;;;6.22;;
43646;SDS011;56152;49.996;18.980;2022-09-20T08:25:23;11.57;;;7.75;;
43646;SDS011;56152;49.996;18.980;2022-09-20T08:30:24;7.07;;;5.72;;
43646;SDS011;56152;49.996;18.980;2022-09-20T08:35:28;11.18;;;5.47;;
43646;SDS011;56152;49.996;18.980;2022-09-20T08:40:30;7.53;;;4.53;;
43646;SDS011;56152;49.996;18.980;2022-09-20T08:45:36;7.03;;;4.85;;
43646;SDS011;56152;49.996;18.980;2022-09-20T08:50:41;9.25;;;4.45;;
43646;SDS011;56152;49.996;18.980;2022-09-20T08:55:45;7.35;;;4.30;;
43646;SDS011;56152;49.996;18.980;2022-09-20T09:00:47;6.20;;;4.10;;
43646;SDS011;56152;49.996;18.980;2022-09-20T09:05:53;7.78;;;4.90;;
43646;SDS011;56152;49.996;18.980;2022-09-20T09:10:57;7.63;;;6.07;;
43646;SDS011;56152;49.996;18.980;2022-09-20T09:16:05;6.30;;;4.88;;
43646;SDS011;56152;49.996;18.980;2022-09-20T09:21:20;9.48;;;5.00;;
43646;SDS011;56152;49.996;18.980;2022-09-20T09:26:24;7.07;;;4.93;;
43646;SDS011;56152;49.996;18.980;2022-09-20T09:31:26;8.57;;;4.57;;
43646;SDS011;56152;49.996;18.980;2022-09-20T09:36:33;8.48;;;4.55;;
43646;SDS011;56152;49.996;18.980;2022-09-20T09:41:44;5.43;;;3.65;;
43646;SDS011;56152;49.996;18.980;2022-09-20T09:46:46;4.47;;;3.53;;
43646;SDS011;56152;49.996;18.980;2022-09-20T09:57:19;6.00;;;3.80;;
43646;SDS011;56152;49.996;18.980;2022-09-20T10:02:40;7.32;;;4.65;;
43646;SDS011;56152;49.996;18.980;2022-09-20T10:07:57;6.72;;;4.18;;
43646;SDS011;56152;49.996;18.980;2022-09-20T10:13:21;7.82;;;5.47;;
43646;SDS011;56152;49.996;18.980;2022-09-20T10:18:33;5.90;;;3.25;;
43646;SDS011;56152;49.996;18.980;2022-09-20T10:23:48;6.22;;;3.10;;
43646;SDS011;56152;49.996;18.980;2022-09-20T10:29:14;6.70;;;3.22;;
43646;SDS011;56152;49.996;18.980;2022-09-20T10:39:57;3.97;;;2.80;;
43646;SDS011;56152;49.996;18.980;2022-09-20T10:45:07;4.55;;;2.72;;
43646;SDS011;56152;49.996;18.980;2022-09-20T10:50:19;2.95;;;2.10;;
43646;SDS011;56152;49.996;18.980;2022-09-20T10:55:31;4.68;;;3.45;;
43646;SDS011;56152;49.996;18.980;2022-09-20T11:00:41;4.13;;;2.40;;
43646;SDS011;56152;49.996;18.980;2022-09-20T11:05:52;6.75;;;2.30;;
43646;SDS011;56152;49.996;18.980;2022-09-20T11:11:06;7.15;;;2.83;;
43646;SDS011;56152;49.996;18.980;2022-09-20T11:16:13;3.20;;;2.13;;
43646;SDS011;56152;49.996;18.980;2022-09-20T11:21:23;3.30;;;2.33;;
43646;SDS011;56152;49.996;18.980;2022-09-20T11:26:30;5.95;;;3.72;;
43646;SDS011;56152;49.996;18.980;2022-09-20T11:31:38;4.82;;;3.33;;
43646;SDS011;56152;49.996;18.980;2022-09-20T11:36:45;6.20;;;2.30;;
43646;SDS011;56152;49.996;18.980;2022-09-20T11:41:55;2.93;;;2.00;;
43646;SDS011;56152;49.996;18.980;2022-09-20T11:47:00;4.82;;;2.40;;
43646;SDS011;56152;49.996;18.980;2022-09-20T11:52:15;5.88;;;3.13;;
43646;SDS011;56152;49.996;18.980;2022-09-20T11:57:30;7.25;;;3.95;;
43646;SDS011;56152;49.996;18.980;2022-09-20T12:02:33;4.72;;;3.20;;
43646;SDS011;56152;49.996;18.980;2022-09-20T12:07:38;6.07;;;3.67;;
43646;SDS011;56152;49.996;18.980;2022-09-20T12:12:43;5.88;;;3.97;;
43646;SDS011;56152;49.996;18.980;2022-09-20T12:23:42;6.47;;;4.43;;
43646;SDS011;56152;49.996;18.980;2022-09-20T12:34:55;7.80;;;5.95;;
43646;SDS011;56152;49.996;18.980;2022-09-20T12:39:57;7.65;;;4.60;;
43646;SDS011;56152;49.996;18.980;2022-09-20T12:45:02;11.40;;;4.68;;
43646;SDS011;56152;49.996;18.980;2022-09-20T12:50:12;9.48;;;6.38;;
43646;SDS011;56152;49.996;18.980;2022-09-20T12:55:40;9.88;;;7.40;;
43646;SDS011;56152;49.996;18.980;2022-09-20T13:00:50;44.20;;;8.82;;
43646;SDS011;56152;49.996;18.980;2022-09-20T13:06:31;8.13;;;3.72;;
43646;SDS011;56152;49.996;18.980;2022-09-20T13:11:34;3.65;;;2.65;;
43646;SDS011;56152;49.996;18.980;2022-09-20T13:16:45;2.80;;;2.30;;
43646;SDS011;56152;49.996;18.980;2022-09-20T13:21:54;2.03;;;1.83;;
43646;SDS011;56152;49.996;18.980;2022-09-20T13:26:59;2.72;;;1.80;;
43646;SDS011;56152;49.996;18.980;2022-09-20T13:32:15;2.25;;;1.58;;
43646;SDS011;56152;49.996;18.980;2022-09-20T13:37:19;5.85;;;2.65;;
43646;SDS011;56152;49.996;18.980;2022-09-20T13:42:22;2.20;;;1.63;;
43646;SDS011;56152;49.996;18.980;2022-09-20T13:47:27;2.20;;;1.65;;
43646;SDS011;56152;49.996;18.980;2022-09-20T13:58:00;2.53;;;1.60;;
43646;SDS011;56152;49.996;18.980;2022-09-20T14:03:05;2.50;;;1.27;;
43646;SDS011;56152;49.996;18.980;2022-09-20T14:08:20;3.00;;;1.58;;
43646;SDS011;56152;49.996;18.980;2022-09-20T14:13:29;3.05;;;1.77;;
43646;SDS011;56152;49.996;18.980;2022-09-20T14:18:33;6.22;;;2.55;;
43646;SDS011;56152;49.996;18.980;2022-09-20T14:29:27;1.67;;;1.58;;
43646;SDS011;56152;49.996;18.980;2022-09-20T14:34:30;4.88;;;2.50;;
43646;SDS011;56152;49.996;18.980;2022-09-20T14:39:43;4.57;;;3.00;;
43646;SDS011;56152;49.996;18.980;2022-09-20T14:44:50;5.03;;;3.40;;
43646;SDS011;56152;49.996;18.980;2022-09-20T14:49:57;4.30;;;3.65;;
43646;SDS011;56152;49.996;18.980;2022-09-20T14:55:01;7.95;;;4.20;;
43646;SDS011;56152;49.996;18.980;2022-09-20T15:00:23;6.45;;;4.22;;
43646;SDS011;56152;49.996;18.980;2022-09-20T15:05:26;7.63;;;4.40;;
43646;SDS011;56152;49.996;18.980;2022-09-20T15:10:33;9.85;;;5.35;;
43646;SDS011;56152;49.996;18.980;2022-09-20T15:15:39;7.95;;;5.03;;
43646;SDS011;56152;49.996;18.980;2022-09-20T15:20:43;8.63;;;4.80;;
43646;SDS011;56152;49.996;18.980;2022-09-20T15:25:46;6.78;;;4.57;;
43646;SDS011;56152;49.996;18.980;2022-09-20T15:30:59;10.10;;;6.45;;
43646;SDS011;56152;49.996;18.980;2022-09-20T15:36:01;6.68;;;4.55;;
43646;SDS011;56152;49.996;18.980;2022-09-20T15:41:04;8.93;;;4.90;;
43646;SDS011;56152;49.996;18.980;2022-09-20T15:46:17;7.20;;;4.45;;
43646;SDS011;56152;49.996;18.980;2022-09-20T15:51:24;8.52;;;5.38;;
43646;SDS011;56152;49.996;18.980;2022-09-20T15:56:29;9.98;;;6.85;;
43646;SDS011;56152;49.996;18.980;2022-09-20T16:01:36;9.57;;;6.22;;
43646;SDS011;56152;49.996;18.980;2022-09-20T16:06:42;12.95;;;7.85;;
43646;SDS011;56152;49.996;18.980;2022-09-20T16:11:44;9.32;;;5.55;;
43646;SDS011;56152;49.996;18.980;2022-09-20T16:16:49;9.63;;;6.03;;
43646;SDS011;56152;49.996;18.980;2022-09-20T16:21:53;9.88;;;6.80;;
43646;SDS011;56152;49.996;18.980;2022-09-20T16:26:57;9.00;;;6.10;;
43646;SDS011;56152;49.996;18.980;2022-09-20T16:32:03;12.27;;;7.15;;
43646;SDS011;56152;49.996;18.980;2022-09-20T16:37:15;10.68;;;7.03;;
43646;SDS011;56152;49.996;18.980;2022-09-20T16:42:19;16.20;;;7.95;;
43646;SDS011;56152;49.996;18.980;2022-09-20T16:47:25;17.15;;;9.48;;
43646;SDS011;56152;49.996;18.980;2022-09-20T16:52:28;18.25;;;12.32;;
43646;SDS011;56152;49.996;18.980;2022-09-20T16:57:31;25.55;;;15.93;;
43646;SDS011;56152;49.996;18.980;2022-09-20T17:02:38;24.48;;;15.15;;
43646;SDS011;56152;49.996;18.980;2022-09-20T17:07:43;27.10;;;14.73;;
43646;SDS011;56152;49.996;18.980;2022-09-20T17:12:46;23.98;;;13.13;;
43646;SDS011;56152;49.996;18.980;2022-09-20T17:17:53;30.88;;;16.23;;
43646;SDS011;56152;49.996;18.980;2022-09-20T17:22:57;22.55;;;14.23;;
43646;SDS011;56152;49.996;18.980;2022-09-20T17:28:00;24.02;;;14.27;;
43646;SDS011;56152;49.996;18.980;2022-09-20T17:33:09;27.70;;;14.27;;
43646;SDS011;56152;49.996;18.980;2022-09-20T17:38:11;31.20;;;15.40;;
43646;SDS011;56152;49.996;18.980;2022-09-20T17:43:13;55.78;;;28.92;;
43646;SDS011;56152;49.996;18.980;2022-09-20T17:48:18;201.80;;;105.45;;
43646;SDS011;56152;49.996;18.980;2022-09-20T17:53:22;56.83;;;32.70;;
43646;SDS011;56152;49.996;18.980;2022-09-20T17:58:24;42.67;;;21.33;;
43646;SDS011;56152;49.996;18.980;2022-09-20T18:03:28;33.28;;;20.45;;
43646;SDS011;56152;49.996;18.980;2022-09-20T18:08:34;33.47;;;18.83;;
43646;SDS011;56152;49.996;18.980;2022-09-20T18:13:35;35.83;;;20.02;;
43646;SDS011;56152;49.996;18.980;2022-09-20T18:18:40;51.47;;;31.25;;
43646;SDS011;56152;49.996;18.980;2022-09-20T18:23:44;43.65;;;28.65;;
43646;SDS011;56152;49.996;18.980;2022-09-20T18:28:46;43.70;;;26.00;;
43646;SDS011;56152;49.996;18.980;2022-09-20T18:33:54;53.58;;;32.95;;
43646;SDS011;56152;49.996;18.980;2022-09-20T18:38:58;55.97;;;26.05;;
43646;SDS011;56152;49.996;18.980;2022-09-20T18:44:01;38.63;;;20.65;;
43646;SDS011;56152;49.996;18.980;2022-09-20T18:49:08;35.33;;;20.42;;
43646;SDS011;56152;49.996;18.980;2022-09-20T18:54:11;29.48;;;17.42;;
43646;SDS011;56152;49.996;18.980;2022-09-20T18:59:16;35.45;;;17.83;;
43646;SDS011;56152;49.996;18.980;2022-09-20T19:04:33;31.58;;;16.00;;
43646;SDS011;56152;49.996;18.980;2022-09-20T19:09:59;33.20;;;17.65;;
43646;SDS011;56152;49.996;18.980;2022-09-20T19:15:20;27.00;;;16.85;;
43646;SDS011;56152;49.996;18.980;2022-09-20T19:20:39;31.50;;;21.33;;
43646;SDS011;56152;49.996;18.980;2022-09-20T19:25:46;28.85;;;15.70;;
43646;SDS011;56152;49.996;18.980;2022-09-20T19:30:55;25.92;;;14.23;;
43646;SDS011;56152;49.996;18.980;2022-09-20T19:35:59;17.48;;;10.45;;
43646;SDS011;56152;49.996;18.980;2022-09-20T19:41:05;16.27;;;10.10;;
43646;SDS011;56152;49.996;18.980;2022-09-20T19:46:33;20.67;;;14.02;;
43646;SDS011;56152;49.996;18.980;2022-09-20T19:51:45;19.92;;;12.05;;
43646;SDS011;56152;49.996;18.980;2022-09-20T19:56:50;15.35;;;10.43;;
43646;SDS011;56152;49.996;18.980;2022-09-20T20:01:53;17.10;;;11.00;;
43646;SDS011;56152;49.996;18.980;2022-09-20T20:07:06;16.45;;;11.07;;
43646;SDS011;56152;49.996;18.980;2022-09-20T20:12:16;23.37;;;13.53;;
43646;SDS011;56152;49.996;18.980;2022-09-20T20:17:31;16.98;;;10.13;;
43646;SDS011;56152;49.996;18.980;2022-09-20T20:28:24;11.30;;;7.90;;
43646;SDS011;56152;49.996;18.980;2022-09-20T20:33:26;16.10;;;10.63;;
43646;SDS011;56152;49.996;18.980;2022-09-20T20:38:31;14.48;;;9.48;;
43646;SDS011;56152;49.996;18.980;2022-09-20T20:43:40;17.38;;;10.75;;
43646;SDS011;56152;49.996;18.980;2022-09-20T20:48:44;19.75;;;11.73;;
43646;SDS011;56152;49.996;18.980;2022-09-20T20:53:47;13.63;;;8.73;;
43646;SDS011;56152;49.996;18.980;2022-09-20T20:58:52;16.17;;;10.20;;
43646;SDS011;56152;49.996;18.980;2022-09-20T21:04:01;12.55;;;8.48;;
43646;SDS011;56152;49.996;18.980;2022-09-20T21:09:04;14.63;;;9.25;;
43646;SDS011;56152;49.996;18.980;2022-09-20T21:14:23;20.88;;;10.50;;
43646;SDS011;56152;49.996;18.980;2022-09-20T21:19:24;22.95;;;12.23;;
43646;SDS011;56152;49.996;18.980;2022-09-20T21:24:37;22.17;;;11.68;;
43646;SDS011;56152;49.996;18.980;2022-09-20T21:29:40;14.13;;;9.73;;
43646;SDS011;56152;49.996;18.980;2022-09-20T21:40:16;28.20;;;17.85;;
43646;SDS011;56152;49.996;18.980;2022-09-20T21:45:19;22.95;;;14.88;;
43646;SDS011;56152;49.996;18.980;2022-09-20T21:50:26;21.60;;;12.93;;
43646;SDS011;56152;49.996;18.980;2022-09-20T21:55:27;19.88;;;11.63;;
43646;SDS011;56152;49.996;18.980;2022-09-20T22:00:44;17.73;;;10.75;;
43646;SDS011;56152;49.996;18.980;2022-09-20T22:06:02;16.83;;;11.57;;
43646;SDS011;56152;49.996;18.980;2022-09-20T22:11:05;14.90;;;11.20;;
43646;SDS011;56152;49.996;18.980;2022-09-20T22:16:16;20.45;;;12.15;;
43646;SDS011;56152;49.996;18.980;2022-09-20T22:21:20;18.27;;;10.93;;
43646;SDS011;56152;49.996;18.980;2022-09-20T22:26:24;15.93;;;10.25;;
43646;SDS011;56152;49.996;18.980;2022-09-20T22:31:29;17.50;;;10.77;;
43646;SDS011;56152;49.996;18.980;2022-09-20T22:36:32;20.17;;;10.90;;
43646;SDS011;56152;49.996;18.980;2022-09-20T22:41:47;18.60;;;11.25;;
43646;SDS011;56152;49.996;18.980;2022-09-20T22:46:53;16.60;;;10.55;;
43646;SDS011;56152;49.996;18.980;2022-09-20T22:51:56;19.23;;;11.73;;
43646;SDS011;56152;49.996;18.980;2022-09-20T22:56:59;15.00;;;9.27;;
43646;SDS011;56152;49.996;18.980;2022-09-20T23:02:20;14.55;;;8.63;;
43646;SDS011;56152;49.996;18.980;2022-09-20T23:07:23;15.43;;;10.23;;
43646;SDS011;56152;49.996;18.980;2022-09-20T23:12:25;17.88;;;10.73;;
43646;SDS011;56152;49.996;18.980;2022-09-20T23:17:30;13.05;;;8.88;;
43646;SDS011;56152;49.996;18.980;2022-09-20T23:22:32;17.50;;;12.38;;
43646;SDS011;56152;49.996;18.980;2022-09-20T23:27:36;16.38;;;11.13;;
43646;SDS011;56152;49.996;18.980;2022-09-20T23:32:42;16.25;;;9.63;;
43646;SDS011;56152;49.996;18.980;2022-09-20T23:37:44;16.55;;;8.73;;
43646;SDS011;56152;49.996;18.980;2022-09-20T23:42:47;12.45;;;8.07;;
43646;SDS011;56152;49.996;18.980;2022-09-20T23:47:52;17.20;;;9.43;;
43646;SDS011;56152;49.996;18.980;2022-09-20T23:52:55;13.45;;;7.93;;
43646;SDS011;56152;49.996;18.980;2022-09-20T23:58:05;18.27;;;10.63;;
